createdAt,value
2022-08-09T00:02:58.469Z,100.00
2022-08-09T00:08:02.936Z,100.00
2022-08-09T00:13:16.667Z,100.00
2022-08-09T00:18:22.654Z,100.00
2022-08-09T00:23:56.194Z,100.00
2022-08-09T00:28:52.370Z,100.00
2022-08-09T00:33:57.722Z,100.00
2022-08-09T00:39:01.723Z,100.00
2022-08-09T00:44:19.901Z,100.00
2022-08-09T00:49:31.901Z,100.00
2022-08-09T00:54:36.204Z,100.00
2022-08-09T00:59:46.621Z,100.00
2022-08-09T01:05:05.306Z,100.00
2022-08-09T01:10:28.910Z,100.00
2022-08-09T01:15:41.102Z,100.00
2022-08-09T01:21:15.261Z,100.00
2022-08-09T01:26:38.067Z,100.00
2022-08-09T01:32:29.809Z,100.00
2022-08-09T01:37:11.225Z,100.00
2022-08-09T01:42:18.890Z,100.00
2022-08-09T01:47:26.571Z,100.00
2022-08-09T01:52:36.557Z,100.00
2022-08-09T01:57:53.059Z,100.00
2022-08-09T02:02:58.701Z,100.00
2022-08-09T02:08:35.353Z,100.00
2022-08-09T02:13:40.693Z,100.00
2022-08-09T02:18:47.754Z,100.00
2022-08-09T02:23:56.419Z,100.00
2022-08-09T02:29:04.686Z,100.00
2022-08-09T02:34:13.726Z,100.00
2022-08-09T02:39:42.487Z,100.00
2022-08-09T02:44:51.374Z,100.00
2022-08-09T02:50:01.634Z,100.00
2022-08-09T02:55:20.786Z,100.00
2022-08-09T03:00:26.787Z,100.00
2022-08-09T03:05:34.255Z,100.00
2022-08-09T03:10:39.146Z,100.00
2022-08-09T03:16:06.412Z,100.00
2022-08-09T03:21:12.437Z,100.00
2022-08-09T03:26:18.108Z,100.00
2022-08-09T03:31:23.873Z,100.00
2022-08-09T03:36:28.151Z,100.00
2022-08-09T03:41:48.308Z,100.00
2022-08-09T03:46:53.675Z,100.00
2022-08-09T03:52:03.694Z,100.00
2022-08-09T03:57:18.465Z,100.00
2022-08-09T04:02:28.886Z,100.00
2022-08-09T04:07:47.010Z,100.00
2022-08-09T04:12:56.019Z,100.00
2022-08-09T04:18:02.758Z,100.00
2022-08-09T04:23:09.711Z,100.00
2022-08-09T04:28:13.746Z,100.00
2022-08-09T04:33:18.704Z,100.00
2022-08-09T04:38:22.226Z,100.00
2022-08-09T04:43:26.855Z,100.00
2022-08-09T04:48:33.255Z,100.00
2022-08-09T04:53:37.239Z,100.00
2022-08-09T04:58:40.946Z,100.00
2022-08-09T05:03:46.808Z,100.00
2022-08-09T05:08:51.773Z,100.00
2022-08-09T05:13:55.265Z,100.00
2022-08-09T05:19:02.842Z,100.00
2022-08-09T05:24:07.121Z,100.00
2022-08-09T05:29:16.992Z,100.00
2022-08-09T05:34:22.095Z,100.00
2022-08-09T05:39:35.995Z,100.00
2022-08-09T05:44:42.957Z,100.00
2022-08-09T05:50:31.069Z,100.00
2022-08-09T05:55:20.796Z,100.00
2022-08-09T06:00:25.770Z,100.00
2022-08-09T06:05:57.189Z,100.00
2022-08-09T06:10:58.293Z,100.00
2022-08-09T06:16:04.733Z,100.00
2022-08-09T06:21:10.269Z,100.00
2022-08-09T06:26:14.622Z,100.00
2022-08-09T06:31:18.239Z,100.00
2022-08-09T06:36:37.307Z,100.00
2022-08-09T06:42:08.608Z,100.00
2022-08-09T06:47:10.762Z,100.00
2022-08-09T06:52:17.621Z,100.00
2022-08-09T06:57:42.467Z,100.00
2022-08-09T07:02:45.920Z,100.00
2022-08-09T07:08:00.308Z,100.00
2022-08-09T07:13:28.265Z,100.00
2022-08-09T07:18:28.911Z,100.00
2022-08-09T07:23:36.477Z,100.00
2022-08-09T07:29:01.356Z,100.00
2022-08-09T07:34:20.471Z,100.00
2022-08-09T07:39:42.240Z,100.00
2022-08-09T07:44:51.071Z,100.00
2022-08-09T07:50:08.005Z,100.00
2022-08-09T07:55:13.759Z,95.67
2022-08-09T08:00:35.811Z,83.69
2022-08-09T08:05:54.107Z,69.41
2022-08-09T08:11:15.380Z,63.30
2022-08-09T08:16:32.072Z,57.38
2022-08-09T08:21:39.493Z,51.59
2022-08-09T08:26:54.636Z,47.80
2022-08-09T08:32:04.498Z,44.25
2022-08-09T08:37:15.591Z,42.34
2022-08-09T08:42:24.311Z,41.05
2022-08-09T08:47:42.618Z,40.54
2022-08-09T08:52:57.982Z,39.31
2022-08-09T08:58:05.819Z,39.16
2022-08-09T09:03:16.328Z,38.25
2022-08-09T09:08:30.989Z,39.50
2022-08-09T09:13:47.491Z,37.47
2022-08-09T09:19:21.613Z,38.12
2022-08-09T09:24:28.660Z,38.78
2022-08-09T09:30:09.124Z,39.81
2022-08-09T09:35:07.479Z,42.24
2022-08-09T09:40:13.291Z,44.90
2022-08-09T09:45:26.696Z,47.30
2022-08-09T09:50:50.713Z,49.00
2022-08-09T09:56:05.095Z,49.76
2022-08-09T10:01:31.291Z,49.60
2022-08-09T10:06:43.486Z,49.61
2022-08-09T10:12:12.143Z,51.25
2022-08-09T10:17:51.467Z,52.10
2022-08-09T10:22:46.160Z,51.03
2022-08-09T10:27:56.526Z,50.29
2022-08-09T10:33:02.729Z,50.83
2022-08-09T10:38:33.739Z,50.31
2022-08-09T10:43:46.697Z,48.19
2022-08-09T10:48:57.029Z,47.43
2022-08-09T10:54:09.969Z,45.57
2022-08-09T10:59:31.764Z,45.76
2022-08-09T11:05:08.136Z,43.17
2022-08-09T11:10:13.238Z,43.98
2022-08-09T11:15:33.564Z,42.28
2022-08-09T11:20:43.277Z,41.30
2022-08-09T11:25:49.653Z,42.10
2022-08-09T11:30:53.540Z,40.86
2022-08-09T11:35:59.807Z,41.75
2022-08-09T11:41:38.019Z,41.59
2022-08-09T11:46:58.139Z,40.28
2022-08-09T11:53:00.770Z,40.53
2022-08-09T11:57:47.621Z,39.12
2022-08-09T12:03:09.830Z,40.14
2022-08-09T12:08:30.089Z,39.55
2022-08-09T12:14:07.969Z,38.64
2022-08-09T12:19:02.895Z,38.54
2022-08-09T12:24:10.125Z,39.01
2022-08-09T12:29:30.041Z,39.53
2022-08-09T12:34:39.881Z,38.83
2022-08-09T12:39:43.541Z,38.43
2022-08-09T12:44:52.334Z,38.65
2022-08-09T12:50:19.574Z,38.72
2022-08-09T12:56:15.741Z,37.58
2022-08-09T13:00:52.460Z,37.27
2022-08-09T13:06:13.270Z,37.48
2022-08-09T13:11:29.827Z,37.30
2022-08-09T13:16:45.879Z,36.35
2022-08-09T13:22:36.417Z,36.19
2022-08-09T13:27:30.568Z,36.88
2022-08-09T13:32:48.475Z,36.55
2022-08-09T13:37:55.359Z,36.71
2022-08-09T13:42:58.998Z,37.43
2022-08-09T13:48:04.137Z,36.49
2022-08-09T13:53:16.090Z,36.72
2022-08-09T13:58:20.037Z,36.39
2022-08-09T14:04:04.754Z,36.59
2022-08-09T14:08:48.653Z,36.08
2022-08-09T14:14:22.228Z,35.71
2022-08-09T14:19:17.856Z,36.75
2022-08-09T14:24:32.555Z,36.33
2022-08-09T14:30:35.092Z,36.63
2022-08-09T14:35:02.285Z,36.36
2022-08-09T14:40:07.026Z,35.57
2022-08-09T14:46:46.657Z,35.87
2022-08-09T14:50:38.066Z,36.02
2022-08-09T14:55:50.299Z,35.41
2022-08-09T15:00:57.641Z,35.67
2022-08-09T15:06:03.925Z,34.85
2022-08-09T15:11:07.722Z,34.96
2022-08-09T15:16:11.404Z,35.78
2022-08-09T15:21:55.260Z,35.16
2022-08-09T15:26:45.485Z,35.34
2022-08-09T15:31:50.091Z,35.59
2022-08-09T15:36:55.315Z,35.66
2022-08-09T15:42:01.804Z,35.77
2022-08-09T15:47:06.430Z,35.87
2022-08-09T15:52:19.672Z,36.64
2022-08-09T15:57:35.621Z,36.65
2022-08-09T16:02:53.742Z,37.24
2022-08-09T16:07:59.392Z,36.92
2022-08-09T16:13:05.153Z,37.13
2022-08-09T16:18:22.647Z,37.45
2022-08-09T16:23:27.741Z,37.99
2022-08-09T16:28:31.676Z,38.05
2022-08-09T16:33:38.707Z,38.09
2022-08-09T16:38:44.342Z,37.99
2022-08-09T16:43:55.593Z,38.20
2022-08-09T16:49:12.526Z,38.61
2022-08-09T16:54:27.765Z,38.61
2022-08-09T16:59:38.256Z,38.40
2022-08-09T17:04:47.707Z,38.64
2022-08-09T17:09:53.911Z,38.63
2022-08-09T17:15:30.651Z,38.46
2022-08-09T17:20:37.327Z,39.14
2022-08-09T17:25:45.018Z,38.73
2022-08-09T17:30:56.728Z,38.90
2022-08-09T17:36:00.234Z,39.17
2022-08-09T17:41:05.231Z,39.28
2022-08-09T17:46:09.893Z,39.52
2022-08-09T17:51:19.152Z,39.38
2022-08-09T17:56:28.862Z,39.75
2022-08-09T18:01:57.950Z,39.60
2022-08-09T18:06:59.467Z,39.88
2022-08-09T18:12:14.673Z,39.92
2022-08-09T18:17:27.302Z,40.10
2022-08-09T18:22:51.187Z,40.00
2022-08-09T18:28:05.480Z,40.46
2022-08-09T18:33:15.283Z,40.57
2022-08-09T18:38:22.868Z,41.01
2022-08-09T18:43:27.834Z,41.63
2022-08-09T18:48:38.574Z,41.61
2022-08-09T18:53:59.849Z,41.25
2022-08-09T18:59:08.947Z,41.63
2022-08-09T19:04:12.785Z,41.95
2022-08-09T19:09:34.123Z,42.14
2022-08-09T19:14:43.513Z,42.13
2022-08-09T19:19:47.244Z,42.10
2022-08-09T19:25:11.648Z,43.22
2022-08-09T19:30:25.341Z,44.46
2022-08-09T19:35:57.273Z,45.22
2022-08-09T19:41:00.511Z,46.89
2022-08-09T19:46:08.492Z,48.38
2022-08-09T19:51:18.356Z,49.25
2022-08-09T19:56:28.769Z,52.08
2022-08-09T20:02:02.986Z,54.95
2022-08-09T20:06:57.826Z,57.35
2022-08-09T20:12:02.704Z,61.44
2022-08-09T20:17:10.584Z,63.90
2022-08-09T20:22:14.887Z,64.21
2022-08-09T20:27:18.714Z,65.91
2022-08-09T20:32:40.747Z,66.77
2022-08-09T20:38:23.528Z,68.40
2022-08-09T20:43:18.200Z,70.25
2022-08-09T20:48:30.968Z,71.22
2022-08-09T20:53:38.800Z,72.85
2022-08-09T20:58:43.555Z,73.75
2022-08-09T21:05:48.879Z,74.73
2022-08-09T21:09:14.355Z,75.49
2022-08-09T21:14:31.107Z,76.07
2022-08-09T21:20:17.973Z,77.19
2022-08-09T21:25:17.581Z,76.94
2022-08-09T21:30:25.082Z,76.38
2022-08-09T21:35:31.831Z,76.36
2022-08-09T21:40:45.355Z,76.17
2022-08-09T21:45:54.337Z,76.63
2022-08-09T21:51:00.581Z,77.49
2022-08-09T21:56:06.490Z,77.65
2022-08-09T22:01:59.012Z,77.81
2022-08-09T22:06:59.143Z,78.68
2022-08-09T22:12:18.396Z,78.93
2022-08-09T22:17:22.530Z,80.08
2022-08-09T22:22:27.602Z,80.06
2022-08-09T22:27:31.236Z,81.21
2022-08-09T22:32:39.640Z,81.72
2022-08-09T22:37:44.692Z,82.26
2022-08-09T22:42:48.584Z,83.16
2022-08-09T22:48:16.015Z,83.56
2022-08-09T22:53:16.911Z,83.53
2022-08-09T22:58:32.137Z,83.54
2022-08-09T23:04:04.816Z,83.77
2022-08-09T23:09:02.224Z,83.46
2022-08-09T23:14:09.127Z,83.59
2022-08-09T23:19:14.033Z,84.38
2022-08-09T23:24:18.829Z,85.13
2022-08-09T23:29:22.304Z,85.99
2022-08-09T23:34:25.811Z,87.60
2022-08-09T23:39:32.290Z,87.92
2022-08-09T23:44:35.913Z,87.89
2022-08-09T23:49:39.434Z,88.95
2022-08-09T23:54:45.453Z,89.81
